CheckWX is a tool to help pilots better visualize weather data.  It is not intended as a substitute for an official pre-flight weather briefing.

22:10:41 UTC

KLYH TAF
Lynchburg Regional / Preston Glenn Field Airport
Lynchburg, Virginia, USA
KLYH 251736Z 2518/2618 VRB04KT P6SM SCT250 FM252300 21006KT P6SM VCSH BKN150 FM260900 18005KT P6SM BKN050 FM261200 21010KT P6SM OVC015 FM261700 25010KT 5SM SHRA BR OVC014

Apr-25@
18:00 UTC

Apr-25 @ 18:00 UTC

Apr-25@
23:00 UTC

Apr-25 @ 23:00 UTC

KLYH 251736Z 2518/2618 VRB04KT P6SM SCT250
Wind
  • Variable at 4 KTS
Cloud Levels
  • Scattered at 25,000' AGL

Apr-25@
23:00 UTC

Apr-25 @ 23:00 UTC

Apr-26@
09:00 UTC

Apr-26 @ 09:00 UTC

FM252300 21006KT P6SM VCSH BKN150

From

From Standard forecast or significant change

Wind
  • 210° at 6 KTS
Cloud Levels
  • Broken at 15,000' AGL

Apr-26@
09:00 UTC

Apr-26 @ 09:00 UTC

Apr-26@
12:00 UTC

Apr-26 @ 12:00 UTC

FM260900 18005KT P6SM BKN050

From

From Standard forecast or significant change

Wind
  • 180° at 5 KTS
Cloud Levels
  • Broken at 5,000' AGL

Apr-26@
12:00 UTC

Apr-26 @ 12:00 UTC

Apr-26@
17:00 UTC

Apr-26 @ 17:00 UTC

FM261200 21010KT P6SM OVC015

From

From Standard forecast or significant change

Wind
  • 210° at 10 KTS
Cloud Levels
  • Overcast at 1,500' AGL

Apr-26@
17:00 UTC

Apr-26 @ 17:00 UTC

Apr-26@
18:00 UTC

Apr-26 @ 18:00 UTC

FM261700 25010KT 5SM SHRA BR OVC014

From

From Standard forecast or significant change

Wind
  • 250° at 10 KTS
Conditions
Rain, Mist
Cloud Levels
  • Overcast at 1,400' AGL